sensor_id;sensor_type;location;lat;lon;timestamp;temperature;humidity
26583;DHT22;14230;45.382;10.998;2022-10-22T00:00:42;17.70;99.90
26583;DHT22;14230;45.382;10.998;2022-10-22T00:03:09;17.80;99.90
26583;DHT22;14230;45.382;10.998;2022-10-22T00:05:37;17.70;99.90
26583;DHT22;14230;45.382;10.998;2022-10-22T00:08:04;17.70;99.90
26583;DHT22;14230;45.382;10.998;2022-10-22T00:10:32;17.70;99.90
26583;DHT22;14230;45.382;10.998;2022-10-22T00:12:59;17.80;99.90
26583;DHT22;14230;45.382;10.998;2022-10-22T00:15:27;17.80;99.90
26583;DHT22;14230;45.382;10.998;2022-10-22T00:17:54;17.80;99.90
26583;DHT22;14230;45.382;10.998;2022-10-22T00:20:21;17.80;99.90
26583;DHT22;14230;45.382;10.998;2022-10-22T00:22:49;17.80;99.90
26583;DHT22;14230;45.382;10.998;2022-10-22T00:25:21;17.80;99.90
26583;DHT22;14230;45.382;10.998;2022-10-22T00:27:48;17.80;99.90
26583;DHT22;14230;45.382;10.998;2022-10-22T00:30:16;17.90;99.90
26583;DHT22;14230;45.382;10.998;2022-10-22T00:32:43;17.90;99.90
26583;DHT22;14230;45.382;10.998;2022-10-22T00:35:11;17.90;99.90
26583;DHT22;14230;45.382;10.998;2022-10-22T00:37:38;17.90;99.90
26583;DHT22;14230;45.382;10.998;2022-10-22T00:40:06;17.80;99.90
26583;DHT22;14230;45.382;10.998;2022-10-22T00:42:34;17.80;99.90
26583;DHT22;14230;45.382;10.998;2022-10-22T00:48:05;17.70;99.90
26583;DHT22;14230;45.382;10.998;2022-10-22T00:50:41;17.60;99.90
26583;DHT22;14230;45.382;10.998;2022-10-22T00:53:13;17.50;99.90
26583;DHT22;14230;45.382;10.998;2022-10-22T00:55:44;17.50;99.90
26583;DHT22;14230;45.382;10.998;2022-10-22T00:58:13;17.50;99.90
26583;DHT22;14230;45.382;10.998;2022-10-22T01:00:41;17.50;99.90
26583;DHT22;14230;45.382;10.998;2022-10-22T01:03:09;17.50;99.90
26583;DHT22;14230;45.382;10.998;2022-10-22T01:05:43;17.50;99.90
26583;DHT22;14230;45.382;10.998;2022-10-22T01:08:48;17.60;99.90
26583;DHT22;14230;45.382;10.998;2022-10-22T01:14:19;17.70;99.90
26583;DHT22;14230;45.382;10.998;2022-10-22T01:30:43;17.70;99.90
26583;DHT22;14230;45.382;10.998;2022-10-22T01:33:13;17.80;99.90
26583;DHT22;14230;45.382;10.998;2022-10-22T01:35:42;17.70;99.90
26583;DHT22;14230;45.382;10.998;2022-10-22T01:38:17;17.80;99.90
26583;DHT22;14230;45.382;10.998;2022-10-22T01:40:47;17.80;99.90
26583;DHT22;14230;45.382;10.998;2022-10-22T01:43:15;17.80;99.90
26583;DHT22;14230;45.382;10.998;2022-10-22T01:45:49;17.80;99.90
26583;DHT22;14230;45.382;10.998;2022-10-22T01:59:21;17.70;99.90
26583;DHT22;14230;45.382;10.998;2022-10-22T02:04:52;17.70;99.90
26583;DHT22;14230;45.382;10.998;2022-10-22T02:07:27;17.70;99.90
26583;DHT22;14230;45.382;10.998;2022-10-22T02:09:57;17.70;99.90
26583;DHT22;14230;45.382;10.998;2022-10-22T02:12:27;17.80;99.90
26583;DHT22;14230;45.382;10.998;2022-10-22T02:14:55;17.80;99.90
26583;DHT22;14230;45.382;10.998;2022-10-22T02:17:24;17.80;99.90
26583;DHT22;14230;45.382;10.998;2022-10-22T02:20:30;17.80;99.90
26583;DHT22;14230;45.382;10.998;2022-10-22T02:22:59;17.70;99.90
26583;DHT22;14230;45.382;10.998;2022-10-22T02:25:30;17.70;99.90
26583;DHT22;14230;45.382;10.998;2022-10-22T02:28:01;17.60;99.90
26583;DHT22;14230;45.382;10.998;2022-10-22T02:30:32;17.60;99.90
26583;DHT22;14230;45.382;10.998;2022-10-22T02:33:49;17.50;99.90
26583;DHT22;14230;45.382;10.998;2022-10-22T02:35:57;17.50;99.90
26583;DHT22;14230;45.382;10.998;2022-10-22T02:38:26;17.30;99.90
26583;DHT22;14230;45.382;10.998;2022-10-22T02:40:54;17.20;99.90
26583;DHT22;14230;45.382;10.998;2022-10-22T02:43:23;17.20;99.90
26583;DHT22;14230;45.382;10.998;2022-10-22T02:45:51;17.10;99.90
26583;DHT22;14230;45.382;10.998;2022-10-22T02:48:18;17.10;99.90
26583;DHT22;14230;45.382;10.998;2022-10-22T02:50:47;17.10;99.90
26583;DHT22;14230;45.382;10.998;2022-10-22T02:53:14;17.10;99.90
26583;DHT22;14230;45.382;10.998;2022-10-22T02:55:41;17.10;99.90
26583;DHT22;14230;45.382;10.998;2022-10-22T02:58:09;17.20;99.90
26583;DHT22;14230;45.382;10.998;2022-10-22T03:00:37;17.20;99.90
26583;DHT22;14230;45.382;10.998;2022-10-22T03:03:04;17.20;99.90
26583;DHT22;14230;45.382;10.998;2022-10-22T03:05:31;17.20;99.90
26583;DHT22;14230;45.382;10.998;2022-10-22T03:07:59;17.20;99.90
26583;DHT22;14230;45.382;10.998;2022-10-22T03:10:26;17.30;99.90
26583;DHT22;14230;45.382;10.998;2022-10-22T03:12:54;17.30;99.90
26583;DHT22;14230;45.382;10.998;2022-10-22T03:15:22;17.30;99.90
26583;DHT22;14230;45.382;10.998;2022-10-22T03:17:49;17.20;99.90
26583;DHT22;14230;45.382;10.998;2022-10-22T03:20:17;17.30;99.90
26583;DHT22;14230;45.382;10.998;2022-10-22T03:22:44;17.30;99.90
26583;DHT22;14230;45.382;10.998;2022-10-22T03:25:15;17.30;99.90
26583;DHT22;14230;45.382;10.998;2022-10-22T03:27:45;17.30;99.90
26583;DHT22;14230;45.382;10.998;2022-10-22T03:30:13;17.30;99.90
26583;DHT22;14230;45.382;10.998;2022-10-22T03:32:41;17.30;99.90
26583;DHT22;14230;45.382;10.998;2022-10-22T03:35:08;17.30;99.90
26583;DHT22;14230;45.382;10.998;2022-10-22T03:37:36;17.30;99.90
26583;DHT22;14230;45.382;10.998;2022-10-22T03:40:05;17.40;99.90
26583;DHT22;14230;45.382;10.998;2022-10-22T03:42:33;17.40;99.90
26583;DHT22;14230;45.382;10.998;2022-10-22T03:45:01;17.40;99.90
26583;DHT22;14230;45.382;10.998;2022-10-22T03:47:28;17.40;99.90
26583;DHT22;14230;45.382;10.998;2022-10-22T03:49:56;17.40;99.90
26583;DHT22;14230;45.382;10.998;2022-10-22T03:52:23;17.40;99.90
26583;DHT22;14230;45.382;10.998;2022-10-22T03:54:50;17.40;99.90
26583;DHT22;14230;45.382;10.998;2022-10-22T03:57:18;17.50;99.90
26583;DHT22;14230;45.382;10.998;2022-10-22T03:59:45;17.40;99.90
26583;DHT22;14230;45.382;10.998;2022-10-22T04:02:13;17.40;99.90
26583;DHT22;14230;45.382;10.998;2022-10-22T04:04:40;17.40;99.90
26583;DHT22;14230;45.382;10.998;2022-10-22T04:07:08;17.30;99.90
26583;DHT22;14230;45.382;10.998;2022-10-22T04:09:35;17.20;99.90
26583;DHT22;14230;45.382;10.998;2022-10-22T04:12:03;17.10;99.90
26583;DHT22;14230;45.382;10.998;2022-10-22T04:14:32;17.10;99.90
26583;DHT22;14230;45.382;10.998;2022-10-22T04:17:00;17.00;99.90
26583;DHT22;14230;45.382;10.998;2022-10-22T04:19:27;17.00;99.90
26583;DHT22;14230;45.382;10.998;2022-10-22T04:21:57;16.90;99.90
26583;DHT22;14230;45.382;10.998;2022-10-22T04:24:25;16.90;99.90
26583;DHT22;14230;45.382;10.998;2022-10-22T04:26:53;16.80;99.90
26583;DHT22;14230;45.382;10.998;2022-10-22T04:29:21;16.80;99.90
26583;DHT22;14230;45.382;10.998;2022-10-22T04:31:48;16.80;99.90
26583;DHT22;14230;45.382;10.998;2022-10-22T04:34:16;16.80;99.90
26583;DHT22;14230;45.382;10.998;2022-10-22T04:36:43;16.70;99.90
26583;DHT22;14230;45.382;10.998;2022-10-22T04:39:11;16.80;99.90
26583;DHT22;14230;45.382;10.998;2022-10-22T04:41:38;16.80;99.90
26583;DHT22;14230;45.382;10.998;2022-10-22T04:44:06;16.80;99.90
26583;DHT22;14230;45.382;10.998;2022-10-22T04:46:42;16.80;99.90
26583;DHT22;14230;45.382;10.998;2022-10-22T04:49:09;16.80;99.90
26583;DHT22;14230;45.382;10.998;2022-10-22T04:51:37;16.80;99.90
26583;DHT22;14230;45.382;10.998;2022-10-22T04:54:04;16.80;99.90
26583;DHT22;14230;45.382;10.998;2022-10-22T04:56:32;16.80;99.90
26583;DHT22;14230;45.382;10.998;2022-10-22T04:59:05;16.80;99.90
26583;DHT22;14230;45.382;10.998;2022-10-22T05:01:34;16.80;99.90
26583;DHT22;14230;45.382;10.998;2022-10-22T05:04:12;16.90;99.90
26583;DHT22;14230;45.382;10.998;2022-10-22T05:06:39;16.90;99.90
26583;DHT22;14230;45.382;10.998;2022-10-22T05:09:11;16.90;99.90
26583;DHT22;14230;45.382;10.998;2022-10-22T05:11:40;17.00;99.90
26583;DHT22;14230;45.382;10.998;2022-10-22T05:14:11;17.00;99.90
26583;DHT22;14230;45.382;10.998;2022-10-22T05:16:39;17.00;99.90
26583;DHT22;14230;45.382;10.998;2022-10-22T05:19:07;17.10;99.90
26583;DHT22;14230;45.382;10.998;2022-10-22T05:21:36;17.10;99.90
26583;DHT22;14230;45.382;10.998;2022-10-22T05:24:04;17.10;99.90
26583;DHT22;14230;45.382;10.998;2022-10-22T05:26:31;17.10;99.90
26583;DHT22;14230;45.382;10.998;2022-10-22T05:28:59;17.20;99.90
26583;DHT22;14230;45.382;10.998;2022-10-22T05:31:26;17.20;99.90
26583;DHT22;14230;45.382;10.998;2022-10-22T05:33:55;17.20;99.90
26583;DHT22;14230;45.382;10.998;2022-10-22T05:36:22;17.20;99.90
26583;DHT22;14230;45.382;10.998;2022-10-22T05:38:50;17.30;99.90
26583;DHT22;14230;45.382;10.998;2022-10-22T05:41:20;17.30;99.90
26583;DHT22;14230;45.382;10.998;2022-10-22T05:43:48;17.30;99.90
26583;DHT22;14230;45.382;10.998;2022-10-22T05:46:19;17.30;99.90
26583;DHT22;14230;45.382;10.998;2022-10-22T05:48:50;17.30;99.90
26583;DHT22;14230;45.382;10.998;2022-10-22T05:51:19;17.30;99.90
26583;DHT22;14230;45.382;10.998;2022-10-22T05:53:54;17.30;99.90
26583;DHT22;14230;45.382;10.998;2022-10-22T05:56:22;17.40;99.90
26583;DHT22;14230;45.382;10.998;2022-10-22T05:58:50;17.40;99.90
26583;DHT22;14230;45.382;10.998;2022-10-22T06:01:21;17.40;99.90
26583;DHT22;14230;45.382;10.998;2022-10-22T06:03:51;17.50;99.90
26583;DHT22;14230;45.382;10.998;2022-10-22T06:08:55;17.60;99.90
26583;DHT22;14230;45.382;10.998;2022-10-22T06:11:26;17.60;99.90
26583;DHT22;14230;45.382;10.998;2022-10-22T06:13:58;17.60;99.90
26583;DHT22;14230;45.382;10.998;2022-10-22T06:16:28;17.60;99.90
26583;DHT22;14230;45.382;10.998;2022-10-22T06:18:58;17.70;99.90
26583;DHT22;14230;45.382;10.998;2022-10-22T06:21:25;17.70;99.90
26583;DHT22;14230;45.382;10.998;2022-10-22T06:23:55;17.70;99.90
26583;DHT22;14230;45.382;10.998;2022-10-22T06:26:22;17.70;99.90
26583;DHT22;14230;45.382;10.998;2022-10-22T06:28:50;17.70;99.90
26583;DHT22;14230;45.382;10.998;2022-10-22T06:31:17;17.70;99.90
26583;DHT22;14230;45.382;10.998;2022-10-22T06:33:45;17.80;99.90
26583;DHT22;14230;45.382;10.998;2022-10-22T06:36:18;17.80;99.90
26583;DHT22;14230;45.382;10.998;2022-10-22T06:38:46;17.80;99.90
26583;DHT22;14230;45.382;10.998;2022-10-22T06:41:15;17.80;99.90
26583;DHT22;14230;45.382;10.998;2022-10-22T06:43:44;17.80;99.90
26583;DHT22;14230;45.382;10.998;2022-10-22T06:46:16;17.90;99.90
26583;DHT22;14230;45.382;10.998;2022-10-22T06:48:57;17.90;99.90
26583;DHT22;14230;45.382;10.998;2022-10-22T06:51:25;17.90;99.90
26583;DHT22;14230;45.382;10.998;2022-10-22T06:53:55;18.00;99.90
26583;DHT22;14230;45.382;10.998;2022-10-22T06:56:25;18.00;99.90
26583;DHT22;14230;45.382;10.998;2022-10-22T06:58:54;18.10;99.90
26583;DHT22;14230;45.382;10.998;2022-10-22T07:01:24;18.10;99.90
26583;DHT22;14230;45.382;10.998;2022-10-22T07:03:53;18.10;99.90
26583;DHT22;14230;45.382;10.998;2022-10-22T07:06:22;18.20;99.90
26583;DHT22;14230;45.382;10.998;2022-10-22T07:08:50;18.30;99.90
26583;DHT22;14230;45.382;10.998;2022-10-22T07:11:23;18.40;99.90
26583;DHT22;14230;45.382;10.998;2022-10-22T07:13:54;18.40;99.90
26583;DHT22;14230;45.382;10.998;2022-10-22T07:16:22;18.50;99.90
26583;DHT22;14230;45.382;10.998;2022-10-22T07:18:57;18.60;99.90
26583;DHT22;14230;45.382;10.998;2022-10-22T07:21:24;18.90;99.90
26583;DHT22;14230;45.382;10.998;2022-10-22T07:23:52;19.20;99.90
26583;DHT22;14230;45.382;10.998;2022-10-22T07:26:20;19.40;99.90
26583;DHT22;14230;45.382;10.998;2022-10-22T07:28:47;19.50;99.90
26583;DHT22;14230;45.382;10.998;2022-10-22T07:31:15;19.60;99.90
26583;DHT22;14230;45.382;10.998;2022-10-22T07:33:43;19.60;99.90
26583;DHT22;14230;45.382;10.998;2022-10-22T07:36:13;19.70;99.90
26583;DHT22;14230;45.382;10.998;2022-10-22T07:38:46;20.10;99.90
26583;DHT22;14230;45.382;10.998;2022-10-22T07:41:15;20.30;99.90
26583;DHT22;14230;45.382;10.998;2022-10-22T07:43:43;20.40;99.90
26583;DHT22;14230;45.382;10.998;2022-10-22T07:46:11;20.70;99.90
26583;DHT22;14230;45.382;10.998;2022-10-22T07:48:38;20.90;99.90
26583;DHT22;14230;45.382;10.998;2022-10-22T07:51:06;21.00;99.90
26583;DHT22;14230;45.382;10.998;2022-10-22T07:53:33;20.90;99.90
26583;DHT22;14230;45.382;10.998;2022-10-22T07:56:01;20.80;99.90
26583;DHT22;14230;45.382;10.998;2022-10-22T07:58:29;21.00;99.90
26583;DHT22;14230;45.382;10.998;2022-10-22T08:00:58;21.50;99.90
26583;DHT22;14230;45.382;10.998;2022-10-22T08:03:27;22.20;99.90
26583;DHT22;14230;45.382;10.998;2022-10-22T08:05:55;22.80;99.90
26583;DHT22;14230;45.382;10.998;2022-10-22T08:08:24;23.90;99.90
26583;DHT22;14230;45.382;10.998;2022-10-22T08:10:58;24.50;99.90
26583;DHT22;14230;45.382;10.998;2022-10-22T08:13:27;24.40;99.90
26583;DHT22;14230;45.382;10.998;2022-10-22T08:15:58;24.30;99.90
26583;DHT22;14230;45.382;10.998;2022-10-22T08:18:27;24.20;99.90
26583;DHT22;14230;45.382;10.998;2022-10-22T08:20:55;24.30;99.90
26583;DHT22;14230;45.382;10.998;2022-10-22T08:23:23;24.10;99.90
26583;DHT22;14230;45.382;10.998;2022-10-22T08:25:55;23.50;99.90
26583;DHT22;14230;45.382;10.998;2022-10-22T08:28:23;23.10;99.90
26583;DHT22;14230;45.382;10.998;2022-10-22T08:30:51;23.10;99.90
26583;DHT22;14230;45.382;10.998;2022-10-22T08:33:18;23.10;99.90
26583;DHT22;14230;45.382;10.998;2022-10-22T08:35:50;23.10;99.90
26583;DHT22;14230;45.382;10.998;2022-10-22T08:38:18;23.00;99.90
26583;DHT22;14230;45.382;10.998;2022-10-22T08:40:55;23.10;99.90
26583;DHT22;14230;45.382;10.998;2022-10-22T08:44:09;23.20;99.90
26583;DHT22;14230;45.382;10.998;2022-10-22T08:49:25;22.70;99.90
26583;DHT22;14230;45.382;10.998;2022-10-22T08:51:55;22.70;99.90
26583;DHT22;14230;45.382;10.998;2022-10-22T09:07:58;21.80;99.90
26583;DHT22;14230;45.382;10.998;2022-10-22T09:10:30;21.80;99.90
26583;DHT22;14230;45.382;10.998;2022-10-22T09:12:59;21.80;99.90
26583;DHT22;14230;45.382;10.998;2022-10-22T09:15:26;21.80;99.90
26583;DHT22;14230;45.382;10.998;2022-10-22T09:20:53;22.10;99.90
26583;DHT22;14230;45.382;10.998;2022-10-22T09:25:56;22.50;99.90
26583;DHT22;14230;45.382;10.998;2022-10-22T09:28:24;23.10;99.90
26583;DHT22;14230;45.382;10.998;2022-10-22T09:30:51;24.40;99.90
26583;DHT22;14230;45.382;10.998;2022-10-22T09:33:30;25.90;99.90
26583;DHT22;14230;45.382;10.998;2022-10-22T09:36:00;26.30;99.90
26583;DHT22;14230;45.382;10.998;2022-10-22T09:38:40;25.70;99.90
26583;DHT22;14230;45.382;10.998;2022-10-22T09:41:10;25.00;99.90
26583;DHT22;14230;45.382;10.998;2022-10-22T09:43:38;24.60;99.90
26583;DHT22;14230;45.382;10.998;2022-10-22T09:46:15;24.10;99.90
26583;DHT22;14230;45.382;10.998;2022-10-22T09:48:49;23.80;99.90
26583;DHT22;14230;45.382;10.998;2022-10-22T09:53:54;23.90;99.90
26583;DHT22;14230;45.382;10.998;2022-10-22T09:56:28;24.90;99.90
26583;DHT22;14230;45.382;10.998;2022-10-22T09:58:59;26.30;99.90
26583;DHT22;14230;45.382;10.998;2022-10-22T10:01:33;27.30;99.90
26583;DHT22;14230;45.382;10.998;2022-10-22T10:04:08;27.20;99.90
26583;DHT22;14230;45.382;10.998;2022-10-22T10:06:39;26.30;99.90
26583;DHT22;14230;45.382;10.998;2022-10-22T10:09:15;25.60;99.90
26583;DHT22;14230;45.382;10.998;2022-10-22T10:14:47;25.30;99.90
26583;DHT22;14230;45.382;10.998;2022-10-22T10:28:45;24.50;99.90
26583;DHT22;14230;45.382;10.998;2022-10-22T10:37:23;25.30;99.90
26583;DHT22;14230;45.382;10.998;2022-10-22T10:43:09;24.70;99.90
26583;DHT22;14230;45.382;10.998;2022-10-22T10:48:52;24.30;99.90
26583;DHT22;14230;45.382;10.998;2022-10-22T10:51:47;24.20;99.90
26583;DHT22;14230;45.382;10.998;2022-10-22T10:54:42;24.20;99.90
26583;DHT22;14230;45.382;10.998;2022-10-22T10:57:33;24.20;99.90
26583;DHT22;14230;45.382;10.998;2022-10-22T11:00:18;24.30;99.90
26583;DHT22;14230;45.382;10.998;2022-10-22T11:02:57;24.50;99.90
26583;DHT22;14230;45.382;10.998;2022-10-22T11:05:50;24.50;99.90
26583;DHT22;14230;45.382;10.998;2022-10-22T11:08:21;24.80;99.90
26583;DHT22;14230;45.382;10.998;2022-10-22T11:11:17;25.00;99.90
26583;DHT22;14230;45.382;10.998;2022-10-22T11:13:58;24.90;99.90
26583;DHT22;14230;45.382;10.998;2022-10-22T11:19:37;25.20;99.90
26583;DHT22;14230;45.382;10.998;2022-10-22T11:25:46;25.30;99.90
26583;DHT22;14230;45.382;10.998;2022-10-22T11:28:26;25.40;99.90
26583;DHT22;14230;45.382;10.998;2022-10-22T11:31:03;25.40;99.90
26583;DHT22;14230;45.382;10.998;2022-10-22T11:33:49;25.40;99.90
26583;DHT22;14230;45.382;10.998;2022-10-22T11:36:23;25.20;99.90
26583;DHT22;14230;45.382;10.998;2022-10-22T11:38:53;25.10;99.90
26583;DHT22;14230;45.382;10.998;2022-10-22T11:41:26;24.90;99.90
26583;DHT22;14230;45.382;10.998;2022-10-22T11:44:07;25.00;99.90
26583;DHT22;14230;45.382;10.998;2022-10-22T11:46:53;24.90;99.90
26583;DHT22;14230;45.382;10.998;2022-10-22T11:49:27;24.90;99.90
26583;DHT22;14230;45.382;10.998;2022-10-22T11:52:24;24.80;99.90
26583;DHT22;14230;45.382;10.998;2022-10-22T11:55:02;24.70;99.90
26583;DHT22;14230;45.382;10.998;2022-10-22T11:57:37;24.70;99.90
26583;DHT22;14230;45.382;10.998;2022-10-22T12:00:20;24.60;99.90
26583;DHT22;14230;45.382;10.998;2022-10-22T12:08:43;24.20;99.90
26583;DHT22;14230;45.382;10.998;2022-10-22T12:14:26;23.90;99.90
26583;DHT22;14230;45.382;10.998;2022-10-22T12:17:13;23.70;99.90
26583;DHT22;14230;45.382;10.998;2022-10-22T12:22:33;23.40;99.90
26583;DHT22;14230;45.382;10.998;2022-10-22T12:25:30;23.30;99.90
26583;DHT22;14230;45.382;10.998;2022-10-22T12:28:02;23.00;99.90
26583;DHT22;14230;45.382;10.998;2022-10-22T12:30:31;22.90;99.90
26583;DHT22;14230;45.382;10.998;2022-10-22T12:33:04;22.70;99.90
26583;DHT22;14230;45.382;10.998;2022-10-22T12:35:34;22.60;99.90
26583;DHT22;14230;45.382;10.998;2022-10-22T12:38:13;22.50;99.90
26583;DHT22;14230;45.382;10.998;2022-10-22T12:40:41;22.50;99.90
26583;DHT22;14230;45.382;10.998;2022-10-22T12:43:18;22.50;99.90
26583;DHT22;14230;45.382;10.998;2022-10-22T12:45:47;22.60;99.90
26583;DHT22;14230;45.382;10.998;2022-10-22T12:48:21;22.60;99.90
26583;DHT22;14230;45.382;10.998;2022-10-22T12:50:52;22.60;99.90
26583;DHT22;14230;45.382;10.998;2022-10-22T12:56:02;22.80;99.90
26583;DHT22;14230;45.382;10.998;2022-10-22T12:58:38;22.90;99.90
26583;DHT22;14230;45.382;10.998;2022-10-22T13:01:10;23.00;99.90
26583;DHT22;14230;45.382;10.998;2022-10-22T13:03:47;23.10;99.90
26583;DHT22;14230;45.382;10.998;2022-10-22T13:11:50;23.30;99.90
26583;DHT22;14230;45.382;10.998;2022-10-22T13:14:25;23.50;99.90
26583;DHT22;14230;45.382;10.998;2022-10-22T13:19:58;23.60;99.90
26583;DHT22;14230;45.382;10.998;2022-10-22T13:22:36;23.60;99.90
26583;DHT22;14230;45.382;10.998;2022-10-22T13:27:52;23.70;99.90
26583;DHT22;14230;45.382;10.998;2022-10-22T13:30:22;23.70;99.90
26583;DHT22;14230;45.382;10.998;2022-10-22T13:32:52;23.70;99.90
26583;DHT22;14230;45.382;10.998;2022-10-22T13:35:23;23.60;99.90
26583;DHT22;14230;45.382;10.998;2022-10-22T13:37:52;23.50;99.90
26583;DHT22;14230;45.382;10.998;2022-10-22T13:40:20;23.40;99.90
26583;DHT22;14230;45.382;10.998;2022-10-22T13:42:47;23.40;99.90
26583;DHT22;14230;45.382;10.998;2022-10-22T13:45:16;23.40;99.90
26583;DHT22;14230;45.382;10.998;2022-10-22T13:47:53;23.40;99.90
26583;DHT22;14230;45.382;10.998;2022-10-22T13:50:21;23.40;99.90
26583;DHT22;14230;45.382;10.998;2022-10-22T13:52:51;23.30;99.90
26583;DHT22;14230;45.382;10.998;2022-10-22T13:55:27;23.30;99.90
26583;DHT22;14230;45.382;10.998;2022-10-22T13:58:02;23.40;99.90
26583;DHT22;14230;45.382;10.998;2022-10-22T14:00:32;23.30;99.90
26583;DHT22;14230;45.382;10.998;2022-10-22T14:03:00;23.30;99.90
26583;DHT22;14230;45.382;10.998;2022-10-22T14:05:27;23.30;99.90
26583;DHT22;14230;45.382;10.998;2022-10-22T14:07:58;23.30;99.90
26583;DHT22;14230;45.382;10.998;2022-10-22T14:10:26;23.40;99.90
26583;DHT22;14230;45.382;10.998;2022-10-22T14:12:53;23.40;99.90
26583;DHT22;14230;45.382;10.998;2022-10-22T14:15:22;23.40;99.90
26583;DHT22;14230;45.382;10.998;2022-10-22T14:17:53;23.40;99.90
26583;DHT22;14230;45.382;10.998;2022-10-22T14:20:29;23.30;99.90
26583;DHT22;14230;45.382;10.998;2022-10-22T14:23:12;23.30;99.90
26583;DHT22;14230;45.382;10.998;2022-10-22T14:25:47;23.30;99.90
26583;DHT22;14230;45.382;10.998;2022-10-22T14:28:17;23.30;99.90
26583;DHT22;14230;45.382;10.998;2022-10-22T14:30:45;23.10;99.90
26583;DHT22;14230;45.382;10.998;2022-10-22T14:33:24;23.10;99.90
26583;DHT22;14230;45.382;10.998;2022-10-22T14:35:59;23.00;99.90
26583;DHT22;14230;45.382;10.998;2022-10-22T14:38:27;23.00;99.90
26583;DHT22;14230;45.382;10.998;2022-10-22T14:40:55;23.00;99.90
26583;DHT22;14230;45.382;10.998;2022-10-22T14:43:29;23.00;99.90
26583;DHT22;14230;45.382;10.998;2022-10-22T14:45:57;22.90;99.90
26583;DHT22;14230;45.382;10.998;2022-10-22T14:48:25;22.90;99.90
26583;DHT22;14230;45.382;10.998;2022-10-22T14:50:53;22.90;99.90
26583;DHT22;14230;45.382;10.998;2022-10-22T14:53:20;22.80;99.90
26583;DHT22;14230;45.382;10.998;2022-10-22T14:55:48;22.80;99.90
26583;DHT22;14230;45.382;10.998;2022-10-22T14:58:17;22.80;99.90
26583;DHT22;14230;45.382;10.998;2022-10-22T15:00:45;22.80;99.90
26583;DHT22;14230;45.382;10.998;2022-10-22T15:03:12;22.70;99.90
26583;DHT22;14230;45.382;10.998;2022-10-22T15:05:41;22.70;99.90
26583;DHT22;14230;45.382;10.998;2022-10-22T15:08:12;22.60;99.90
26583;DHT22;14230;45.382;10.998;2022-10-22T15:10:40;22.50;99.90
26583;DHT22;14230;45.382;10.998;2022-10-22T15:13:08;22.50;99.90
26583;DHT22;14230;45.382;10.998;2022-10-22T15:15:38;22.40;99.90
26583;DHT22;14230;45.382;10.998;2022-10-22T15:18:06;22.40;99.90
26583;DHT22;14230;45.382;10.998;2022-10-22T15:20:34;22.30;99.90
26583;DHT22;14230;45.382;10.998;2022-10-22T15:23:01;22.30;99.90
26583;DHT22;14230;45.382;10.998;2022-10-22T15:25:28;22.20;99.90
26583;DHT22;14230;45.382;10.998;2022-10-22T15:27:56;22.20;99.90
26583;DHT22;14230;45.382;10.998;2022-10-22T15:30:33;22.10;99.90
26583;DHT22;14230;45.382;10.998;2022-10-22T15:33:01;22.10;99.90
26583;DHT22;14230;45.382;10.998;2022-10-22T15:35:28;22.00;99.90
26583;DHT22;14230;45.382;10.998;2022-10-22T15:37:55;21.90;99.90
26583;DHT22;14230;45.382;10.998;2022-10-22T15:40:23;21.90;99.90
26583;DHT22;14230;45.382;10.998;2022-10-22T15:42:50;21.80;99.90
26583;DHT22;14230;45.382;10.998;2022-10-22T15:45:18;21.80;99.90
26583;DHT22;14230;45.382;10.998;2022-10-22T15:47:47;21.70;99.90
26583;DHT22;14230;45.382;10.998;2022-10-22T15:50:15;21.60;99.90
26583;DHT22;14230;45.382;10.998;2022-10-22T15:52:43;21.50;99.90
26583;DHT22;14230;45.382;10.998;2022-10-22T15:55:10;21.50;99.90
26583;DHT22;14230;45.382;10.998;2022-10-22T15:57:39;21.40;99.90
26583;DHT22;14230;45.382;10.998;2022-10-22T16:00:07;21.30;99.90
26583;DHT22;14230;45.382;10.998;2022-10-22T16:02:38;21.20;99.90
26583;DHT22;14230;45.382;10.998;2022-10-22T16:05:06;21.20;99.90
26583;DHT22;14230;45.382;10.998;2022-10-22T16:07:33;21.10;99.90
26583;DHT22;14230;45.382;10.998;2022-10-22T16:10:01;21.00;99.90
26583;DHT22;14230;45.382;10.998;2022-10-22T16:12:28;21.00;99.90
26583;DHT22;14230;45.382;10.998;2022-10-22T16:14:56;20.90;99.90
26583;DHT22;14230;45.382;10.998;2022-10-22T16:17:23;20.80;99.90
26583;DHT22;14230;45.382;10.998;2022-10-22T16:19:50;20.70;99.90
26583;DHT22;14230;45.382;10.998;2022-10-22T16:22:18;20.70;99.90
26583;DHT22;14230;45.382;10.998;2022-10-22T16:24:45;20.60;99.90
26583;DHT22;14230;45.382;10.998;2022-10-22T16:27:13;20.50;99.90
26583;DHT22;14230;45.382;10.998;2022-10-22T16:29:40;20.50;99.90
26583;DHT22;14230;45.382;10.998;2022-10-22T16:32:08;20.40;99.90
26583;DHT22;14230;45.382;10.998;2022-10-22T16:34:35;20.40;99.90
26583;DHT22;14230;45.382;10.998;2022-10-22T16:37:02;20.30;99.90
26583;DHT22;14230;45.382;10.998;2022-10-22T16:39:36;20.30;99.90
26583;DHT22;14230;45.382;10.998;2022-10-22T16:42:04;20.20;99.90
26583;DHT22;14230;45.382;10.998;2022-10-22T16:44:31;20.20;99.90
26583;DHT22;14230;45.382;10.998;2022-10-22T16:46:59;20.10;99.90
26583;DHT22;14230;45.382;10.998;2022-10-22T16:49:27;19.90;99.90
26583;DHT22;14230;45.382;10.998;2022-10-22T16:51:55;19.80;99.90
26583;DHT22;14230;45.382;10.998;2022-10-22T16:54:22;19.70;99.90
26583;DHT22;14230;45.382;10.998;2022-10-22T16:56:50;19.50;99.90
26583;DHT22;14230;45.382;10.998;2022-10-22T16:59:17;19.40;99.90
26583;DHT22;14230;45.382;10.998;2022-10-22T17:01:45;19.30;99.90
26583;DHT22;14230;45.382;10.998;2022-10-22T17:04:12;19.30;99.90
26583;DHT22;14230;45.382;10.998;2022-10-22T17:06:39;19.30;99.90
26583;DHT22;14230;45.382;10.998;2022-10-22T17:09:07;19.20;99.90
26583;DHT22;14230;45.382;10.998;2022-10-22T17:11:35;19.20;99.90
26583;DHT22;14230;45.382;10.998;2022-10-22T17:14:07;19.10;99.90
26583;DHT22;14230;45.382;10.998;2022-10-22T17:16:34;19.00;99.90
26583;DHT22;14230;45.382;10.998;2022-10-22T17:19:03;19.00;99.90
26583;DHT22;14230;45.382;10.998;2022-10-22T17:21:30;19.00;99.90
26583;DHT22;14230;45.382;10.998;2022-10-22T17:23:58;18.90;99.90
26583;DHT22;14230;45.382;10.998;2022-10-22T17:26:25;18.90;99.90
26583;DHT22;14230;45.382;10.998;2022-10-22T17:28:53;18.80;99.90
26583;DHT22;14230;45.382;10.998;2022-10-22T17:31:23;18.80;99.90
26583;DHT22;14230;45.382;10.998;2022-10-22T17:33:53;18.60;99.90
26583;DHT22;14230;45.382;10.998;2022-10-22T17:36:21;18.60;99.90